sensor_id;sensor_type;location;lat;lon;timestamp;temperature;humidity
10883;DHT22;5494;51.796;10.952;2022-09-09T00:00:49;14.80;99.90
10883;DHT22;5494;51.796;10.952;2022-09-09T00:03:26;14.80;99.90
10883;DHT22;5494;51.796;10.952;2022-09-09T00:06:06;14.80;99.90
10883;DHT22;5494;51.796;10.952;2022-09-09T00:08:51;14.90;99.90
10883;DHT22;5494;51.796;10.952;2022-09-09T00:11:33;14.90;99.90
10883;DHT22;5494;51.796;10.952;2022-09-09T00:14:16;14.90;99.90
10883;DHT22;5494;51.796;10.952;2022-09-09T00:16:55;14.90;99.90
10883;DHT22;5494;51.796;10.952;2022-09-09T00:19:35;14.90;99.90
10883;DHT22;5494;51.796;10.952;2022-09-09T00:22:17;14.80;99.90
10883;DHT22;5494;51.796;10.952;2022-09-09T00:24:51;14.80;99.90
10883;DHT22;5494;51.796;10.952;2022-09-09T00:27:26;14.80;99.90
10883;DHT22;5494;51.796;10.952;2022-09-09T00:30:12;14.80;99.90
10883;DHT22;5494;51.796;10.952;2022-09-09T00:32:43;14.70;99.90
10883;DHT22;5494;51.796;10.952;2022-09-09T00:35:17;14.80;99.90
10883;DHT22;5494;51.796;10.952;2022-09-09T00:37:55;14.70;99.90
10883;DHT22;5494;51.796;10.952;2022-09-09T00:40:32;14.70;99.90
10883;DHT22;5494;51.796;10.952;2022-09-09T00:43:18;14.70;99.90
10883;DHT22;5494;51.796;10.952;2022-09-09T00:46:21;14.70;99.90
10883;DHT22;5494;51.796;10.952;2022-09-09T00:49:37;14.70;99.90
10883;DHT22;5494;51.796;10.952;2022-09-09T00:52:22;14.80;99.90
10883;DHT22;5494;51.796;10.952;2022-09-09T00:55:06;14.70;99.90
10883;DHT22;5494;51.796;10.952;2022-09-09T00:57:40;14.70;99.90
10883;DHT22;5494;51.796;10.952;2022-09-09T01:00:21;14.70;99.90
10883;DHT22;5494;51.796;10.952;2022-09-09T01:03:08;14.80;99.90
10883;DHT22;5494;51.796;10.952;2022-09-09T01:05:59;14.80;99.90
10883;DHT22;5494;51.796;10.952;2022-09-09T01:08:48;14.90;99.90
10883;DHT22;5494;51.796;10.952;2022-09-09T01:11:39;14.90;99.90
10883;DHT22;5494;51.796;10.952;2022-09-09T01:14:27;14.80;99.90
10883;DHT22;5494;51.796;10.952;2022-09-09T01:17:12;14.80;99.90
10883;DHT22;5494;51.796;10.952;2022-09-09T01:20:02;14.80;99.90
10883;DHT22;5494;51.796;10.952;2022-09-09T01:23:10;14.70;99.90
10883;DHT22;5494;51.796;10.952;2022-09-09T01:26:18;14.80;99.90
10883;DHT22;5494;51.796;10.952;2022-09-09T01:28:51;14.80;99.90
10883;DHT22;5494;51.796;10.952;2022-09-09T01:31:30;14.80;99.90
10883;DHT22;5494;51.796;10.952;2022-09-09T01:34:09;14.70;99.90
10883;DHT22;5494;51.796;10.952;2022-09-09T01:36:45;14.70;99.90
10883;DHT22;5494;51.796;10.952;2022-09-09T01:39:19;14.70;99.90
10883;DHT22;5494;51.796;10.952;2022-09-09T01:41:58;14.70;99.90
10883;DHT22;5494;51.796;10.952;2022-09-09T01:44:28;14.60;99.90
10883;DHT22;5494;51.796;10.952;2022-09-09T01:46:58;14.60;99.90
10883;DHT22;5494;51.796;10.952;2022-09-09T01:49:27;14.60;99.90
10883;DHT22;5494;51.796;10.952;2022-09-09T01:51:57;14.60;99.90
10883;DHT22;5494;51.796;10.952;2022-09-09T01:54:32;14.60;99.90
10883;DHT22;5494;51.796;10.952;2022-09-09T01:57:18;14.60;99.90
10883;DHT22;5494;51.796;10.952;2022-09-09T02:00:00;14.60;99.90
10883;DHT22;5494;51.796;10.952;2022-09-09T02:02:46;14.70;99.90
10883;DHT22;5494;51.796;10.952;2022-09-09T02:05:35;14.60;99.90
10883;DHT22;5494;51.796;10.952;2022-09-09T02:08:18;14.60;99.90
10883;DHT22;5494;51.796;10.952;2022-09-09T02:11:01;14.50;99.90
10883;DHT22;5494;51.796;10.952;2022-09-09T02:13:45;14.50;99.90
10883;DHT22;5494;51.796;10.952;2022-09-09T02:16:22;14.60;99.90
10883;DHT22;5494;51.796;10.952;2022-09-09T02:18:57;14.60;99.90
10883;DHT22;5494;51.796;10.952;2022-09-09T02:21:44;14.70;99.90
10883;DHT22;5494;51.796;10.952;2022-09-09T02:24:16;14.70;99.90
10883;DHT22;5494;51.796;10.952;2022-09-09T02:26:53;14.80;99.90
10883;DHT22;5494;51.796;10.952;2022-09-09T02:29:31;14.80;99.90
10883;DHT22;5494;51.796;10.952;2022-09-09T02:32:05;14.80;99.90
10883;DHT22;5494;51.796;10.952;2022-09-09T02:34:43;14.80;99.90
10883;DHT22;5494;51.796;10.952;2022-09-09T02:37:19;14.80;99.90
10883;DHT22;5494;51.796;10.952;2022-09-09T02:39:53;14.80;99.90
10883;DHT22;5494;51.796;10.952;2022-09-09T02:42:24;14.80;99.90
10883;DHT22;5494;51.796;10.952;2022-09-09T02:44:56;14.70;99.90
10883;DHT22;5494;51.796;10.952;2022-09-09T02:47:29;14.70;99.90
10883;DHT22;5494;51.796;10.952;2022-09-09T02:50:13;14.80;99.90
10883;DHT22;5494;51.796;10.952;2022-09-09T02:53:02;14.80;99.90
10883;DHT22;5494;51.796;10.952;2022-09-09T02:55:47;14.80;99.90
10883;DHT22;5494;51.796;10.952;2022-09-09T02:58:23;14.80;99.90
10883;DHT22;5494;51.796;10.952;2022-09-09T03:01:02;14.90;99.90
10883;DHT22;5494;51.796;10.952;2022-09-09T03:03:31;14.90;99.90
10883;DHT22;5494;51.796;10.952;2022-09-09T03:06:06;14.90;99.90
10883;DHT22;5494;51.796;10.952;2022-09-09T03:08:36;14.90;99.90
10883;DHT22;5494;51.796;10.952;2022-09-09T03:11:04;14.80;99.90
10883;DHT22;5494;51.796;10.952;2022-09-09T03:13:36;14.80;99.90
10883;DHT22;5494;51.796;10.952;2022-09-09T03:16:07;14.70;99.90
10883;DHT22;5494;51.796;10.952;2022-09-09T03:18:41;14.70;99.90
10883;DHT22;5494;51.796;10.952;2022-09-09T03:21:13;14.70;99.90
10883;DHT22;5494;51.796;10.952;2022-09-09T03:23:42;14.70;99.90
10883;DHT22;5494;51.796;10.952;2022-09-09T03:26:12;14.70;99.90
10883;DHT22;5494;51.796;10.952;2022-09-09T03:28:44;14.70;99.90
10883;DHT22;5494;51.796;10.952;2022-09-09T03:31:22;14.70;99.90
10883;DHT22;5494;51.796;10.952;2022-09-09T03:33:52;14.70;99.90
10883;DHT22;5494;51.796;10.952;2022-09-09T03:36:21;14.70;99.90
10883;DHT22;5494;51.796;10.952;2022-09-09T03:38:49;14.70;99.90
10883;DHT22;5494;51.796;10.952;2022-09-09T03:41:18;14.70;99.90
10883;DHT22;5494;51.796;10.952;2022-09-09T03:43:47;14.60;99.90
10883;DHT22;5494;51.796;10.952;2022-09-09T03:46:17;14.60;99.90
10883;DHT22;5494;51.796;10.952;2022-09-09T03:48:47;14.60;99.90
10883;DHT22;5494;51.796;10.952;2022-09-09T03:51:16;14.60;99.90
10883;DHT22;5494;51.796;10.952;2022-09-09T03:53:46;14.60;99.90
10883;DHT22;5494;51.796;10.952;2022-09-09T03:56:15;14.60;99.90
10883;DHT22;5494;51.796;10.952;2022-09-09T03:58:43;14.60;99.90
10883;DHT22;5494;51.796;10.952;2022-09-09T04:01:14;14.60;99.90
10883;DHT22;5494;51.796;10.952;2022-09-09T04:03:45;14.60;99.90
10883;DHT22;5494;51.796;10.952;2022-09-09T04:06:14;14.60;99.90
10883;DHT22;5494;51.796;10.952;2022-09-09T04:08:46;14.70;99.90
10883;DHT22;5494;51.796;10.952;2022-09-09T04:11:16;14.80;99.90
10883;DHT22;5494;51.796;10.952;2022-09-09T04:14:07;14.80;99.90
10883;DHT22;5494;51.796;10.952;2022-09-09T04:16:37;14.70;99.90
10883;DHT22;5494;51.796;10.952;2022-09-09T04:19:06;14.80;99.90
10883;DHT22;5494;51.796;10.952;2022-09-09T04:21:36;14.80;99.90
10883;DHT22;5494;51.796;10.952;2022-09-09T04:24:05;14.90;99.90
10883;DHT22;5494;51.796;10.952;2022-09-09T04:26:34;15.00;99.90
10883;DHT22;5494;51.796;10.952;2022-09-09T04:29:04;14.90;99.90
10883;DHT22;5494;51.796;10.952;2022-09-09T04:31:35;14.90;99.90
10883;DHT22;5494;51.796;10.952;2022-09-09T04:34:04;14.90;99.90
10883;DHT22;5494;51.796;10.952;2022-09-09T04:36:33;14.80;99.90
10883;DHT22;5494;51.796;10.952;2022-09-09T04:39:06;14.70;99.90
10883;DHT22;5494;51.796;10.952;2022-09-09T04:41:35;14.60;99.90
10883;DHT22;5494;51.796;10.952;2022-09-09T04:44:05;14.60;99.90
10883;DHT22;5494;51.796;10.952;2022-09-09T04:46:33;14.60;99.90
10883;DHT22;5494;51.796;10.952;2022-09-09T04:49:02;14.60;99.90
10883;DHT22;5494;51.796;10.952;2022-09-09T04:51:32;14.60;99.90
10883;DHT22;5494;51.796;10.952;2022-09-09T04:54:01;14.70;99.90
10883;DHT22;5494;51.796;10.952;2022-09-09T04:56:31;14.70;99.90
10883;DHT22;5494;51.796;10.952;2022-09-09T04:59:01;14.70;99.90
10883;DHT22;5494;51.796;10.952;2022-09-09T05:01:44;14.70;99.90
10883;DHT22;5494;51.796;10.952;2022-09-09T05:04:12;14.70;99.90
10883;DHT22;5494;51.796;10.952;2022-09-09T05:06:43;14.80;99.90
10883;DHT22;5494;51.796;10.952;2022-09-09T05:09:12;14.80;99.90
10883;DHT22;5494;51.796;10.952;2022-09-09T05:11:42;14.80;99.90
10883;DHT22;5494;51.796;10.952;2022-09-09T05:14:18;14.80;99.90
10883;DHT22;5494;51.796;10.952;2022-09-09T05:16:47;14.80;99.90
10883;DHT22;5494;51.796;10.952;2022-09-09T05:19:17;14.90;99.90
10883;DHT22;5494;51.796;10.952;2022-09-09T05:21:48;14.90;99.90
10883;DHT22;5494;51.796;10.952;2022-09-09T05:24:22;15.00;99.90
10883;DHT22;5494;51.796;10.952;2022-09-09T05:26:55;15.00;99.90
10883;DHT22;5494;51.796;10.952;2022-09-09T05:29:25;15.00;99.90
10883;DHT22;5494;51.796;10.952;2022-09-09T05:31:55;15.00;99.90
10883;DHT22;5494;51.796;10.952;2022-09-09T05:34:24;15.00;99.90
10883;DHT22;5494;51.796;10.952;2022-09-09T05:36:52;15.00;99.90
10883;DHT22;5494;51.796;10.952;2022-09-09T05:39:22;15.00;99.90
10883;DHT22;5494;51.796;10.952;2022-09-09T05:41:51;15.10;99.90
10883;DHT22;5494;51.796;10.952;2022-09-09T05:44:21;15.20;99.90
10883;DHT22;5494;51.796;10.952;2022-09-09T05:46:50;15.30;99.90
10883;DHT22;5494;51.796;10.952;2022-09-09T05:49:19;15.30;99.90
10883;DHT22;5494;51.796;10.952;2022-09-09T05:51:48;15.30;99.90
10883;DHT22;5494;51.796;10.952;2022-09-09T05:54:19;15.30;99.90
10883;DHT22;5494;51.796;10.952;2022-09-09T05:56:50;15.30;99.90
10883;DHT22;5494;51.796;10.952;2022-09-09T05:59:21;15.40;99.90
10883;DHT22;5494;51.796;10.952;2022-09-09T06:01:52;15.70;99.90
10883;DHT22;5494;51.796;10.952;2022-09-09T06:04:26;15.70;99.90
10883;DHT22;5494;51.796;10.952;2022-09-09T06:06:55;15.70;99.90
10883;DHT22;5494;51.796;10.952;2022-09-09T06:09:23;15.80;99.90
10883;DHT22;5494;51.796;10.952;2022-09-09T06:11:52;15.80;99.90
10883;DHT22;5494;51.796;10.952;2022-09-09T06:14:24;15.80;99.90
10883;DHT22;5494;51.796;10.952;2022-09-09T06:16:57;15.90;99.90
10883;DHT22;5494;51.796;10.952;2022-09-09T06:19:28;15.90;99.90
10883;DHT22;5494;51.796;10.952;2022-09-09T06:21:58;16.00;99.90
10883;DHT22;5494;51.796;10.952;2022-09-09T06:24:29;16.40;99.90
10883;DHT22;5494;51.796;10.952;2022-09-09T06:26:59;17.10;99.90
10883;DHT22;5494;51.796;10.952;2022-09-09T06:29:33;17.60;99.90
10883;DHT22;5494;51.796;10.952;2022-09-09T06:32:03;17.60;99.90
10883;DHT22;5494;51.796;10.952;2022-09-09T06:34:32;17.60;99.90
10883;DHT22;5494;51.796;10.952;2022-09-09T06:37:00;17.30;99.90
10883;DHT22;5494;51.796;10.952;2022-09-09T06:39:35;17.10;99.90
10883;DHT22;5494;51.796;10.952;2022-09-09T06:42:04;17.00;99.90
10883;DHT22;5494;51.796;10.952;2022-09-09T06:44:52;17.00;99.90
10883;DHT22;5494;51.796;10.952;2022-09-09T06:47:38;17.00;99.90
10883;DHT22;5494;51.796;10.952;2022-09-09T06:50:08;17.20;99.90
10883;DHT22;5494;51.796;10.952;2022-09-09T06:52:39;17.40;99.90
10883;DHT22;5494;51.796;10.952;2022-09-09T06:55:09;17.40;99.90
10883;DHT22;5494;51.796;10.952;2022-09-09T06:57:37;17.40;99.90
10883;DHT22;5494;51.796;10.952;2022-09-09T07:00:14;17.50;99.90
10883;DHT22;5494;51.796;10.952;2022-09-09T07:02:42;17.70;99.90
10883;DHT22;5494;51.796;10.952;2022-09-09T07:05:13;17.80;99.90
10883;DHT22;5494;51.796;10.952;2022-09-09T07:07:44;18.00;99.90
10883;DHT22;5494;51.796;10.952;2022-09-09T07:10:14;18.20;99.90
10883;DHT22;5494;51.796;10.952;2022-09-09T07:12:43;18.40;99.90
10883;DHT22;5494;51.796;10.952;2022-09-09T07:15:14;18.40;99.90
10883;DHT22;5494;51.796;10.952;2022-09-09T07:17:44;18.50;99.90
10883;DHT22;5494;51.796;10.952;2022-09-09T07:20:14;18.20;99.90
10883;DHT22;5494;51.796;10.952;2022-09-09T07:22:43;18.40;99.90
10883;DHT22;5494;51.796;10.952;2022-09-09T07:25:11;18.30;99.90
10883;DHT22;5494;51.796;10.952;2022-09-09T07:27:41;18.30;99.90
10883;DHT22;5494;51.796;10.952;2022-09-09T07:30:11;18.40;99.90
10883;DHT22;5494;51.796;10.952;2022-09-09T07:32:50;18.40;99.90
10883;DHT22;5494;51.796;10.952;2022-09-09T07:35:19;18.40;99.90
10883;DHT22;5494;51.796;10.952;2022-09-09T07:37:48;18.40;99.90
10883;DHT22;5494;51.796;10.952;2022-09-09T07:40:19;18.30;99.90
10883;DHT22;5494;51.796;10.952;2022-09-09T07:42:48;18.40;99.90
10883;DHT22;5494;51.796;10.952;2022-09-09T07:45:17;18.30;99.90
10883;DHT22;5494;51.796;10.952;2022-09-09T07:47:46;18.30;99.90
10883;DHT22;5494;51.796;10.952;2022-09-09T07:50:18;18.30;99.90
10883;DHT22;5494;51.796;10.952;2022-09-09T07:52:47;18.30;99.90
10883;DHT22;5494;51.796;10.952;2022-09-09T07:55:16;18.20;99.90
10883;DHT22;5494;51.796;10.952;2022-09-09T07:57:45;18.20;99.90
10883;DHT22;5494;51.796;10.952;2022-09-09T08:00:15;18.10;99.90
10883;DHT22;5494;51.796;10.952;2022-09-09T08:02:49;18.20;99.90
10883;DHT22;5494;51.796;10.952;2022-09-09T08:05:22;18.30;99.90
10883;DHT22;5494;51.796;10.952;2022-09-09T08:07:52;18.40;99.90
10883;DHT22;5494;51.796;10.952;2022-09-09T08:10:21;18.60;99.90
10883;DHT22;5494;51.796;10.952;2022-09-09T08:12:51;18.90;99.90
10883;DHT22;5494;51.796;10.952;2022-09-09T08:15:39;19.10;99.90
10883;DHT22;5494;51.796;10.952;2022-09-09T08:18:08;19.50;99.90
10883;DHT22;5494;51.796;10.952;2022-09-09T08:20:38;19.80;99.90
10883;DHT22;5494;51.796;10.952;2022-09-09T08:23:07;20.00;99.90
10883;DHT22;5494;51.796;10.952;2022-09-09T08:25:36;20.60;99.90
10883;DHT22;5494;51.796;10.952;2022-09-09T08:28:05;21.50;99.90
10883;DHT22;5494;51.796;10.952;2022-09-09T08:30:34;22.30;99.90
10883;DHT22;5494;51.796;10.952;2022-09-09T08:33:03;23.20;99.90
10883;DHT22;5494;51.796;10.952;2022-09-09T08:35:32;23.90;99.90
10883;DHT22;5494;51.796;10.952;2022-09-09T08:38:03;24.30;99.90
10883;DHT22;5494;51.796;10.952;2022-09-09T08:40:42;24.60;99.90
10883;DHT22;5494;51.796;10.952;2022-09-09T08:43:18;25.30;99.90
10883;DHT22;5494;51.796;10.952;2022-09-09T08:45:55;25.70;99.90
10883;DHT22;5494;51.796;10.952;2022-09-09T08:48:43;26.00;99.90
10883;DHT22;5494;51.796;10.952;2022-09-09T08:51:24;26.30;99.90
10883;DHT22;5494;51.796;10.952;2022-09-09T08:53:57;26.60;99.90
10883;DHT22;5494;51.796;10.952;2022-09-09T08:56:28;26.60;99.90
10883;DHT22;5494;51.796;10.952;2022-09-09T08:59:02;26.60;99.90
10883;DHT22;5494;51.796;10.952;2022-09-09T09:01:44;25.60;99.90
10883;DHT22;5494;51.796;10.952;2022-09-09T09:04:45;25.20;99.90
10883;DHT22;5494;51.796;10.952;2022-09-09T09:07:31;24.90;99.90
10883;DHT22;5494;51.796;10.952;2022-09-09T09:10:18;24.20;99.90
10883;DHT22;5494;51.796;10.952;2022-09-09T09:13:13;24.00;99.90
10883;DHT22;5494;51.796;10.952;2022-09-09T09:15:50;24.00;99.90
10883;DHT22;5494;51.796;10.952;2022-09-09T09:18:22;24.10;99.90
10883;DHT22;5494;51.796;10.952;2022-09-09T09:20:58;24.00;99.90
10883;DHT22;5494;51.796;10.952;2022-09-09T09:23:40;23.60;99.90
10883;DHT22;5494;51.796;10.952;2022-09-09T09:26:15;23.30;99.90
10883;DHT22;5494;51.796;10.952;2022-09-09T09:28:44;23.10;99.90
10883;DHT22;5494;51.796;10.952;2022-09-09T09:31:17;22.70;99.90
10883;DHT22;5494;51.796;10.952;2022-09-09T09:33:51;22.20;99.90
10883;DHT22;5494;51.796;10.952;2022-09-09T09:36:34;21.90;99.90
10883;DHT22;5494;51.796;10.952;2022-09-09T09:39:07;22.50;99.90
10883;DHT22;5494;51.796;10.952;2022-09-09T09:42:09;23.20;99.90
10883;DHT22;5494;51.796;10.952;2022-09-09T09:44:43;24.00;99.90
10883;DHT22;5494;51.796;10.952;2022-09-09T09:47:20;24.30;99.90
10883;DHT22;5494;51.796;10.952;2022-09-09T09:50:17;24.70;99.90
10883;DHT22;5494;51.796;10.952;2022-09-09T09:52:54;24.90;99.90
10883;DHT22;5494;51.796;10.952;2022-09-09T09:55:25;25.20;99.90
10883;DHT22;5494;51.796;10.952;2022-09-09T09:58:01;25.00;99.90
10883;DHT22;5494;51.796;10.952;2022-09-09T10:00:47;24.80;99.90
10883;DHT22;5494;51.796;10.952;2022-09-09T10:03:24;24.80;99.90
10883;DHT22;5494;51.796;10.952;2022-09-09T10:05:56;24.90;99.90
10883;DHT22;5494;51.796;10.952;2022-09-09T10:08:26;25.10;99.90
10883;DHT22;5494;51.796;10.952;2022-09-09T10:11:14;25.10;99.90
10883;DHT22;5494;51.796;10.952;2022-09-09T10:13:59;24.60;99.90
10883;DHT22;5494;51.796;10.952;2022-09-09T10:16:45;24.00;99.90
10883;DHT22;5494;51.796;10.952;2022-09-09T10:19:30;23.90;99.90
10883;DHT22;5494;51.796;10.952;2022-09-09T10:22:12;23.60;99.90
10883;DHT22;5494;51.796;10.952;2022-09-09T10:25:10;23.20;99.90
10883;DHT22;5494;51.796;10.952;2022-09-09T10:28:10;23.20;99.90
10883;DHT22;5494;51.796;10.952;2022-09-09T10:31:01;23.20;99.90
10883;DHT22;5494;51.796;10.952;2022-09-09T10:33:50;23.70;99.90
10883;DHT22;5494;51.796;10.952;2022-09-09T10:36:25;24.00;99.90
10883;DHT22;5494;51.796;10.952;2022-09-09T10:38:59;24.30;99.90
10883;DHT22;5494;51.796;10.952;2022-09-09T10:41:42;24.60;99.90
10883;DHT22;5494;51.796;10.952;2022-09-09T10:44:26;25.10;99.90
10883;DHT22;5494;51.796;10.952;2022-09-09T10:47:28;25.50;99.90
10883;DHT22;5494;51.796;10.952;2022-09-09T10:50:23;25.60;99.90
10883;DHT22;5494;51.796;10.952;2022-09-09T10:53:31;24.60;99.90
10883;DHT22;5494;51.796;10.952;2022-09-09T10:56:07;24.00;99.90
10883;DHT22;5494;51.796;10.952;2022-09-09T10:58:43;23.70;99.90
10883;DHT22;5494;51.796;10.952;2022-09-09T11:01:20;23.80;99.90
10883;DHT22;5494;51.796;10.952;2022-09-09T11:03:57;23.60;99.90
10883;DHT22;5494;51.796;10.952;2022-09-09T11:06:35;23.80;99.90
10883;DHT22;5494;51.796;10.952;2022-09-09T11:09:13;23.80;99.90
10883;DHT22;5494;51.796;10.952;2022-09-09T11:11:50;23.80;99.90
10883;DHT22;5494;51.796;10.952;2022-09-09T11:14:26;23.60;99.90
10883;DHT22;5494;51.796;10.952;2022-09-09T11:17:08;23.60;99.90
10883;DHT22;5494;51.796;10.952;2022-09-09T11:19:42;23.70;99.90
10883;DHT22;5494;51.796;10.952;2022-09-09T11:22:21;23.70;99.90
10883;DHT22;5494;51.796;10.952;2022-09-09T11:25:00;23.80;99.90
10883;DHT22;5494;51.796;10.952;2022-09-09T11:27:48;23.70;99.90
10883;DHT22;5494;51.796;10.952;2022-09-09T11:30:34;23.70;99.90
10883;DHT22;5494;51.796;10.952;2022-09-09T11:33:49;23.80;99.90
10883;DHT22;5494;51.796;10.952;2022-09-09T11:36:52;24.00;99.90
10883;DHT22;5494;51.796;10.952;2022-09-09T11:40:00;24.10;99.90
10883;DHT22;5494;51.796;10.952;2022-09-09T11:42:42;24.30;99.90
10883;DHT22;5494;51.796;10.952;2022-09-09T11:45:20;24.40;99.90
10883;DHT22;5494;51.796;10.952;2022-09-09T11:47:53;24.30;99.90
10883;DHT22;5494;51.796;10.952;2022-09-09T11:50:33;24.20;99.90
10883;DHT22;5494;51.796;10.952;2022-09-09T11:53:18;24.20;99.90
10883;DHT22;5494;51.796;10.952;2022-09-09T11:56:07;24.10;99.90
10883;DHT22;5494;51.796;10.952;2022-09-09T11:58:42;24.00;99.90
10883;DHT22;5494;51.796;10.952;2022-09-09T12:01:16;23.90;99.90
10883;DHT22;5494;51.796;10.952;2022-09-09T12:04:05;23.80;99.90
10883;DHT22;5494;51.796;10.952;2022-09-09T12:06:51;23.70;99.90
10883;DHT22;5494;51.796;10.952;2022-09-09T12:09:28;23.60;99.90
10883;DHT22;5494;51.796;10.952;2022-09-09T12:12:07;23.50;99.90
10883;DHT22;5494;51.796;10.952;2022-09-09T12:15:15;23.50;99.90
10883;DHT22;5494;51.796;10.952;2022-09-09T12:17:57;23.40;99.90
10883;DHT22;5494;51.796;10.952;2022-09-09T12:20:33;23.30;99.90
10883;DHT22;5494;51.796;10.952;2022-09-09T12:23:14;23.40;99.90
10883;DHT22;5494;51.796;10.952;2022-09-09T12:25:59;23.40;99.90
10883;DHT22;5494;51.796;10.952;2022-09-09T12:28:50;23.40;99.90
10883;DHT22;5494;51.796;10.952;2022-09-09T12:31:30;23.40;99.90
10883;DHT22;5494;51.796;10.952;2022-09-09T12:34:10;23.20;99.90
10883;DHT22;5494;51.796;10.952;2022-09-09T12:36:44;23.00;99.90
10883;DHT22;5494;51.796;10.952;2022-09-09T12:39:25;23.00;99.90
10883;DHT22;5494;51.796;10.952;2022-09-09T12:42:02;23.00;99.90
10883;DHT22;5494;51.796;10.952;2022-09-09T12:44:31;23.10;99.90
10883;DHT22;5494;51.796;10.952;2022-09-09T12:47:02;23.20;99.90
10883;DHT22;5494;51.796;10.952;2022-09-09T12:49:35;23.30;99.90
10883;DHT22;5494;51.796;10.952;2022-09-09T12:52:12;23.30;99.90
10883;DHT22;5494;51.796;10.952;2022-09-09T12:54:47;23.40;99.90
10883;DHT22;5494;51.796;10.952;2022-09-09T12:57:20;23.50;99.90
10883;DHT22;5494;51.796;10.952;2022-09-09T13:00:04;23.70;99.90
10883;DHT22;5494;51.796;10.952;2022-09-09T13:02:46;23.80;99.90
10883;DHT22;5494;51.796;10.952;2022-09-09T13:05:21;23.80;99.90
10883;DHT22;5494;51.796;10.952;2022-09-09T13:07:50;23.70;99.90
10883;DHT22;5494;51.796;10.952;2022-09-09T13:10:24;23.70;99.90
10883;DHT22;5494;51.796;10.952;2022-09-09T13:13:20;23.60;99.90
10883;DHT22;5494;51.796;10.952;2022-09-09T13:15:53;23.60;99.90
10883;DHT22;5494;51.796;10.952;2022-09-09T13:18:27;23.70;99.30
10883;DHT22;5494;51.796;10.952;2022-09-09T13:20:58;23.60;99.20
10883;DHT22;5494;51.796;10.952;2022-09-09T13:23:28;23.40;99.90
10883;DHT22;5494;51.796;10.952;2022-09-09T13:26:01;23.40;99.90
10883;DHT22;5494;51.796;10.952;2022-09-09T13:28:34;23.50;99.90
10883;DHT22;5494;51.796;10.952;2022-09-09T13:31:05;23.80;99.90
10883;DHT22;5494;51.796;10.952;2022-09-09T13:33:47;24.00;99.90
10883;DHT22;5494;51.796;10.952;2022-09-09T13:36:16;24.10;98.20
10883;DHT22;5494;51.796;10.952;2022-09-09T13:38:58;24.10;99.30
10883;DHT22;5494;51.796;10.952;2022-09-09T13:41:31;24.00;98.90
10883;DHT22;5494;51.796;10.952;2022-09-09T13:44:04;23.90;97.70
10883;DHT22;5494;51.796;10.952;2022-09-09T13:46:34;23.80;97.80
10883;DHT22;5494;51.796;10.952;2022-09-09T13:49:20;23.80;98.90
10883;DHT22;5494;51.796;10.952;2022-09-09T13:51:51;23.80;99.20
10883;DHT22;5494;51.796;10.952;2022-09-09T13:54:21;23.60;99.90
10883;DHT22;5494;51.796;10.952;2022-09-09T13:56:49;23.60;99.90
10883;DHT22;5494;51.796;10.952;2022-09-09T13:59:20;23.60;99.90
10883;DHT22;5494;51.796;10.952;2022-09-09T14:01:48;23.60;99.90
10883;DHT22;5494;51.796;10.952;2022-09-09T14:04:19;23.50;99.90
10883;DHT22;5494;51.796;10.952;2022-09-09T14:06:49;23.40;99.90
10883;DHT22;5494;51.796;10.952;2022-09-09T14:09:19;23.10;99.90
10883;DHT22;5494;51.796;10.952;2022-09-09T14:11:47;23.00;99.90
10883;DHT22;5494;51.796;10.952;2022-09-09T14:14:16;23.00;99.90
10883;DHT22;5494;51.796;10.952;2022-09-09T14:16:46;22.90;99.90
10883;DHT22;5494;51.796;10.952;2022-09-09T14:19:15;22.90;99.90
10883;DHT22;5494;51.796;10.952;2022-09-09T14:21:43;22.90;99.90
10883;DHT22;5494;51.796;10.952;2022-09-09T14:24:12;22.80;99.90
10883;DHT22;5494;51.796;10.952;2022-09-09T14:26:41;22.80;99.90
10883;DHT22;5494;51.796;10.952;2022-09-09T14:29:09;22.80;99.90
10883;DHT22;5494;51.796;10.952;2022-09-09T14:31:37;22.70;99.90
10883;DHT22;5494;51.796;10.952;2022-09-09T14:34:08;22.80;99.90
10883;DHT22;5494;51.796;10.952;2022-09-09T14:36:37;23.00;99.90
10883;DHT22;5494;51.796;10.952;2022-09-09T14:39:06;23.00;99.90
10883;DHT22;5494;51.796;10.952;2022-09-09T14:41:34;23.10;99.90
10883;DHT22;5494;51.796;10.952;2022-09-09T14:44:02;23.20;99.90
10883;DHT22;5494;51.796;10.952;2022-09-09T14:46:31;23.30;99.90
10883;DHT22;5494;51.796;10.952;2022-09-09T14:49:00;23.40;99.90
10883;DHT22;5494;51.796;10.952;2022-09-09T14:51:30;23.40;99.90
10883;DHT22;5494;51.796;10.952;2022-09-09T14:53:59;23.50;99.90
10883;DHT22;5494;51.796;10.952;2022-09-09T14:56:31;23.40;99.90
10883;DHT22;5494;51.796;10.952;2022-09-09T14:59:02;23.20;99.70
10883;DHT22;5494;51.796;10.952;2022-09-09T15:01:31;23.10;99.90
10883;DHT22;5494;51.796;10.952;2022-09-09T15:04:03;23.00;99.90
10883;DHT22;5494;51.796;10.952;2022-09-09T15:06:35;23.00;99.90
10883;DHT22;5494;51.796;10.952;2022-09-09T15:09:06;23.10;99.90
10883;DHT22;5494;51.796;10.952;2022-09-09T15:11:37;23.20;99.90
10883;DHT22;5494;51.796;10.952;2022-09-09T15:14:06;23.20;99.90
10883;DHT22;5494;51.796;10.952;2022-09-09T15:16:37;23.30;99.90
10883;DHT22;5494;51.796;10.952;2022-09-09T15:19:07;23.20;99.90
10883;DHT22;5494;51.796;10.952;2022-09-09T15:21:38;23.20;99.80
10883;DHT22;5494;51.796;10.952;2022-09-09T15:24:06;23.20;99.90
10883;DHT22;5494;51.796;10.952;2022-09-09T15:26:37;23.10;99.90
10883;DHT22;5494;51.796;10.952;2022-09-09T15:29:07;23.00;99.90
10883;DHT22;5494;51.796;10.952;2022-09-09T15:31:37;22.90;99.90
10883;DHT22;5494;51.796;10.952;2022-09-09T15:34:06;22.70;99.90
10883;DHT22;5494;51.796;10.952;2022-09-09T15:36:38;22.50;99.90
10883;DHT22;5494;51.796;10.952;2022-09-09T15:39:09;22.40;99.90
10883;DHT22;5494;51.796;10.952;2022-09-09T15:41:40;22.30;99.90
10883;DHT22;5494;51.796;10.952;2022-09-09T15:44:09;22.10;99.90
10883;DHT22;5494;51.796;10.952;2022-09-09T15:46:40;22.00;99.90
10883;DHT22;5494;51.796;10.952;2022-09-09T15:49:11;21.90;99.90
10883;DHT22;5494;51.796;10.952;2022-09-09T15:51:43;21.90;99.90
10883;DHT22;5494;51.796;10.952;2022-09-09T15:54:14;21.80;99.90
10883;DHT22;5494;51.796;10.952;2022-09-09T15:56:45;21.80;99.90
10883;DHT22;5494;51.796;10.952;2022-09-09T15:59:16;21.70;99.90
10883;DHT22;5494;51.796;10.952;2022-09-09T16:01:45;21.60;99.90
10883;DHT22;5494;51.796;10.952;2022-09-09T16:04:13;21.60;99.90
10883;DHT22;5494;51.796;10.952;2022-09-09T16:06:49;21.50;99.90
10883;DHT22;5494;51.796;10.952;2022-09-09T16:09:19;21.50;99.90
10883;DHT22;5494;51.796;10.952;2022-09-09T16:11:48;21.40;99.90
10883;DHT22;5494;51.796;10.952;2022-09-09T16:14:17;21.40;99.90
10883;DHT22;5494;51.796;10.952;2022-09-09T16:16:45;21.50;99.90
10883;DHT22;5494;51.796;10.952;2022-09-09T16:19:14;21.40;99.90
10883;DHT22;5494;51.796;10.952;2022-09-09T16:21:43;21.30;99.90